sensor_id;sensor_type;location;lat;lon;timestamp;P1;durP1;ratioP1;P2;durP2;ratioP2
39176;SDS011;24904;52.208;21.192;2022-08-03T00:04:40;9.30;;;7.30;;
39176;SDS011;24904;52.208;21.192;2022-08-03T00:09:43;8.20;;;6.30;;
39176;SDS011;24904;52.208;21.192;2022-08-03T00:14:46;9.90;;;6.80;;
39176;SDS011;24904;52.208;21.192;2022-08-03T00:19:49;8.40;;;6.50;;
39176;SDS011;24904;52.208;21.192;2022-08-03T00:24:52;9.90;;;6.90;;
39176;SDS011;24904;52.208;21.192;2022-08-03T00:29:55;7.60;;;6.80;;
39176;SDS011;24904;52.208;21.192;2022-08-03T00:34:58;9.00;;;6.90;;
39176;SDS011;24904;52.208;21.192;2022-08-03T00:40:01;11.40;;;7.70;;
39176;SDS011;24904;52.208;21.192;2022-08-03T00:45:06;14.20;;;7.50;;
39176;SDS011;24904;52.208;21.192;2022-08-03T00:50:09;7.60;;;6.70;;
39176;SDS011;24904;52.208;21.192;2022-08-03T00:55:13;9.00;;;7.60;;
39176;SDS011;24904;52.208;21.192;2022-08-03T01:00:19;10.80;;;7.40;;
39176;SDS011;24904;52.208;21.192;2022-08-03T01:05:23;10.70;;;7.60;;
39176;SDS011;24904;52.208;21.192;2022-08-03T01:10:31;9.20;;;7.40;;
39176;SDS011;24904;52.208;21.192;2022-08-03T01:15:42;9.80;;;7.60;;
39176;SDS011;24904;52.208;21.192;2022-08-03T01:20:50;11.00;;;7.30;;
39176;SDS011;24904;52.208;21.192;2022-08-03T01:26:02;9.30;;;7.00;;
39176;SDS011;24904;52.208;21.192;2022-08-03T01:31:13;9.70;;;7.60;;
39176;SDS011;24904;52.208;21.192;2022-08-03T01:36:21;8.80;;;7.20;;
39176;SDS011;24904;52.208;21.192;2022-08-03T01:41:28;7.60;;;6.80;;
39176;SDS011;24904;52.208;21.192;2022-08-03T01:46:33;12.80;;;6.80;;
39176;SDS011;24904;52.208;21.192;2022-08-03T01:51:38;8.40;;;6.90;;
39176;SDS011;24904;52.208;21.192;2022-08-03T01:56:44;7.60;;;6.80;;
39176;SDS011;24904;52.208;21.192;2022-08-03T02:01:49;9.80;;;7.40;;
39176;SDS011;24904;52.208;21.192;2022-08-03T02:06:54;11.00;;;7.50;;
39176;SDS011;24904;52.208;21.192;2022-08-03T02:11:59;8.50;;;7.20;;
39176;SDS011;24904;52.208;21.192;2022-08-03T02:17:03;10.50;;;7.70;;
39176;SDS011;24904;52.208;21.192;2022-08-03T02:22:09;9.60;;;8.40;;
39176;SDS011;24904;52.208;21.192;2022-08-03T02:27:15;10.30;;;7.60;;
39176;SDS011;24904;52.208;21.192;2022-08-03T02:32:27;11.00;;;7.80;;
39176;SDS011;24904;52.208;21.192;2022-08-03T02:37:35;10.20;;;7.90;;
39176;SDS011;24904;52.208;21.192;2022-08-03T02:42:43;8.60;;;7.60;;
39176;SDS011;24904;52.208;21.192;2022-08-03T02:47:47;10.50;;;7.50;;
39176;SDS011;24904;52.208;21.192;2022-08-03T02:52:53;11.60;;;8.40;;
39176;SDS011;24904;52.208;21.192;2022-08-03T02:57:58;10.20;;;7.90;;
39176;SDS011;24904;52.208;21.192;2022-08-03T03:03:01;12.00;;;8.00;;
39176;SDS011;24904;52.208;21.192;2022-08-03T03:08:07;12.40;;;8.60;;
39176;SDS011;24904;52.208;21.192;2022-08-03T03:13:13;14.30;;;8.50;;
39176;SDS011;24904;52.208;21.192;2022-08-03T03:18:18;11.00;;;8.60;;
39176;SDS011;24904;52.208;21.192;2022-08-03T03:23:23;12.70;;;9.30;;
39176;SDS011;24904;52.208;21.192;2022-08-03T03:28:29;13.00;;;8.70;;
39176;SDS011;24904;52.208;21.192;2022-08-03T03:33:33;11.80;;;10.10;;
39176;SDS011;24904;52.208;21.192;2022-08-03T03:38:37;14.20;;;9.30;;
39176;SDS011;24904;52.208;21.192;2022-08-03T03:43:40;12.00;;;9.60;;
39176;SDS011;24904;52.208;21.192;2022-08-03T03:48:43;12.90;;;9.60;;
39176;SDS011;24904;52.208;21.192;2022-08-03T03:53:56;14.20;;;9.20;;
39176;SDS011;24904;52.208;21.192;2022-08-03T03:59:02;13.50;;;8.90;;
39176;SDS011;24904;52.208;21.192;2022-08-03T04:04:05;9.60;;;7.80;;
39176;SDS011;24904;52.208;21.192;2022-08-03T04:09:22;14.40;;;9.40;;
39176;SDS011;24904;52.208;21.192;2022-08-03T04:14:44;12.50;;;7.70;;
39176;SDS011;24904;52.208;21.192;2022-08-03T04:19:49;8.80;;;7.40;;
39176;SDS011;24904;52.208;21.192;2022-08-03T04:24:56;10.40;;;7.70;;
39176;SDS011;24904;52.208;21.192;2022-08-03T04:30:03;11.30;;;8.10;;
39176;SDS011;24904;52.208;21.192;2022-08-03T04:35:09;12.00;;;8.20;;
39176;SDS011;24904;52.208;21.192;2022-08-03T04:40:13;10.90;;;7.90;;
39176;SDS011;24904;52.208;21.192;2022-08-03T04:45:20;13.60;;;8.40;;
39176;SDS011;24904;52.208;21.192;2022-08-03T04:50:25;12.30;;;8.50;;
39176;SDS011;24904;52.208;21.192;2022-08-03T04:55:38;13.10;;;10.20;;
39176;SDS011;24904;52.208;21.192;2022-08-03T05:00:41;16.40;;;10.90;;
39176;SDS011;24904;52.208;21.192;2022-08-03T05:05:45;16.40;;;12.40;;
39176;SDS011;24904;52.208;21.192;2022-08-03T05:10:51;13.70;;;11.00;;
39176;SDS011;24904;52.208;21.192;2022-08-03T05:15:54;13.50;;;10.70;;
39176;SDS011;24904;52.208;21.192;2022-08-03T05:20:57;15.30;;;10.10;;
39176;SDS011;24904;52.208;21.192;2022-08-03T05:26:00;12.10;;;10.00;;
39176;SDS011;24904;52.208;21.192;2022-08-03T05:31:03;13.40;;;9.80;;
39176;SDS011;24904;52.208;21.192;2022-08-03T05:36:06;12.80;;;10.10;;
39176;SDS011;24904;52.208;21.192;2022-08-03T05:41:09;14.90;;;9.60;;
39176;SDS011;24904;52.208;21.192;2022-08-03T05:46:12;14.50;;;9.40;;
39176;SDS011;24904;52.208;21.192;2022-08-03T05:51:16;13.40;;;11.00;;
39176;SDS011;24904;52.208;21.192;2022-08-03T05:56:21;16.90;;;11.70;;
39176;SDS011;24904;52.208;21.192;2022-08-03T06:01:25;15.90;;;12.30;;
39176;SDS011;24904;52.208;21.192;2022-08-03T06:06:28;13.40;;;12.00;;
39176;SDS011;24904;52.208;21.192;2022-08-03T06:11:31;14.10;;;12.10;;
39176;SDS011;24904;52.208;21.192;2022-08-03T06:16:34;14.60;;;12.00;;
39176;SDS011;24904;52.208;21.192;2022-08-03T06:21:37;14.80;;;11.70;;
39176;SDS011;24904;52.208;21.192;2022-08-03T06:26:40;16.40;;;12.80;;
39176;SDS011;24904;52.208;21.192;2022-08-03T06:31:44;20.90;;;12.90;;
39176;SDS011;24904;52.208;21.192;2022-08-03T06:36:47;20.10;;;13.00;;
39176;SDS011;24904;52.208;21.192;2022-08-03T06:41:51;15.00;;;12.40;;
39176;SDS011;24904;52.208;21.192;2022-08-03T06:46:54;17.20;;;11.80;;
39176;SDS011;24904;52.208;21.192;2022-08-03T06:51:58;15.10;;;12.20;;
39176;SDS011;24904;52.208;21.192;2022-08-03T06:57:01;17.80;;;12.70;;
39176;SDS011;24904;52.208;21.192;2022-08-03T07:02:05;26.30;;;11.90;;
39176;SDS011;24904;52.208;21.192;2022-08-03T07:07:09;18.10;;;12.80;;
39176;SDS011;24904;52.208;21.192;2022-08-03T07:12:13;16.00;;;13.30;;
39176;SDS011;24904;52.208;21.192;2022-08-03T07:17:16;19.20;;;13.50;;
39176;SDS011;24904;52.208;21.192;2022-08-03T07:22:19;19.70;;;14.90;;
39176;SDS011;24904;52.208;21.192;2022-08-03T07:27:22;16.40;;;12.20;;
39176;SDS011;24904;52.208;21.192;2022-08-03T07:32:27;16.00;;;13.80;;
39176;SDS011;24904;52.208;21.192;2022-08-03T07:37:31;13.90;;;12.30;;
39176;SDS011;24904;52.208;21.192;2022-08-03T07:42:35;19.90;;;14.20;;
39176;SDS011;24904;52.208;21.192;2022-08-03T07:47:38;19.40;;;15.70;;
39176;SDS011;24904;52.208;21.192;2022-08-03T07:52:41;18.80;;;14.90;;
39176;SDS011;24904;52.208;21.192;2022-08-03T07:57:59;25.70;;;15.10;;
39176;SDS011;24904;52.208;21.192;2022-08-03T08:03:03;20.70;;;15.80;;
39176;SDS011;24904;52.208;21.192;2022-08-03T08:08:06;16.30;;;13.80;;
39176;SDS011;24904;52.208;21.192;2022-08-03T08:13:10;20.40;;;14.30;;
39176;SDS011;24904;52.208;21.192;2022-08-03T08:18:13;24.20;;;14.30;;
39176;SDS011;24904;52.208;21.192;2022-08-03T08:23:16;19.70;;;15.90;;
39176;SDS011;24904;52.208;21.192;2022-08-03T08:28:23;22.50;;;14.70;;
39176;SDS011;24904;52.208;21.192;2022-08-03T08:33:26;19.20;;;13.90;;
39176;SDS011;24904;52.208;21.192;2022-08-03T08:38:29;23.10;;;12.40;;
39176;SDS011;24904;52.208;21.192;2022-08-03T08:43:32;14.70;;;11.60;;
39176;SDS011;24904;52.208;21.192;2022-08-03T08:48:36;19.10;;;11.50;;
39176;SDS011;24904;52.208;21.192;2022-08-03T08:53:43;13.50;;;10.80;;
39176;SDS011;24904;52.208;21.192;2022-08-03T08:58:51;12.40;;;8.90;;
39176;SDS011;24904;52.208;21.192;2022-08-03T09:04:00;12.30;;;7.30;;
39176;SDS011;24904;52.208;21.192;2022-08-03T09:09:06;9.50;;;7.60;;
39176;SDS011;24904;52.208;21.192;2022-08-03T09:14:10;6.30;;;5.30;;
39176;SDS011;24904;52.208;21.192;2022-08-03T09:19:13;10.50;;;4.10;;
39176;SDS011;24904;52.208;21.192;2022-08-03T09:24:16;11.30;;;4.70;;
39176;SDS011;24904;52.208;21.192;2022-08-03T09:29:24;5.90;;;5.00;;
39176;SDS011;24904;52.208;21.192;2022-08-03T09:34:27;7.00;;;5.00;;
39176;SDS011;24904;52.208;21.192;2022-08-03T09:39:31;6.30;;;4.60;;
39176;SDS011;24904;52.208;21.192;2022-08-03T09:44:40;6.40;;;4.70;;
39176;SDS011;24904;52.208;21.192;2022-08-03T09:49:55;18.50;;;5.20;;
39176;SDS011;24904;52.208;21.192;2022-08-03T09:55:02;8.30;;;4.30;;
39176;SDS011;24904;52.208;21.192;2022-08-03T10:00:12;5.80;;;4.90;;
39176;SDS011;24904;52.208;21.192;2022-08-03T10:05:17;8.00;;;5.00;;
39176;SDS011;24904;52.208;21.192;2022-08-03T10:10:40;8.10;;;5.70;;
39176;SDS011;24904;52.208;21.192;2022-08-03T10:15:44;9.60;;;5.70;;
39176;SDS011;24904;52.208;21.192;2022-08-03T10:20:50;7.00;;;4.90;;
39176;SDS011;24904;52.208;21.192;2022-08-03T10:25:56;9.60;;;5.20;;
39176;SDS011;24904;52.208;21.192;2022-08-03T10:31:02;8.10;;;4.80;;
39176;SDS011;24904;52.208;21.192;2022-08-03T10:36:08;7.70;;;4.80;;
39176;SDS011;24904;52.208;21.192;2022-08-03T10:41:11;5.60;;;4.70;;
39176;SDS011;24904;52.208;21.192;2022-08-03T10:46:18;6.60;;;4.50;;
39176;SDS011;24904;52.208;21.192;2022-08-03T10:51:22;8.30;;;4.90;;
39176;SDS011;24904;52.208;21.192;2022-08-03T11:02:00;10.50;;;5.20;;
39176;SDS011;24904;52.208;21.192;2022-08-03T11:07:19;7.10;;;5.00;;
39176;SDS011;24904;52.208;21.192;2022-08-03T11:12:24;9.30;;;5.20;;
39176;SDS011;24904;52.208;21.192;2022-08-03T11:17:29;30.50;;;12.40;;
39176;SDS011;24904;52.208;21.192;2022-08-03T11:27:59;7.90;;;4.90;;
39176;SDS011;24904;52.208;21.192;2022-08-03T11:33:29;8.10;;;5.40;;
39176;SDS011;24904;52.208;21.192;2022-08-03T11:38:32;7.70;;;5.50;;
39176;SDS011;24904;52.208;21.192;2022-08-03T11:43:44;7.20;;;4.70;;
39176;SDS011;24904;52.208;21.192;2022-08-03T11:48:48;9.60;;;5.80;;
39176;SDS011;24904;52.208;21.192;2022-08-03T11:53:53;14.40;;;7.10;;
39176;SDS011;24904;52.208;21.192;2022-08-03T11:58:57;9.90;;;5.50;;
39176;SDS011;24904;52.208;21.192;2022-08-03T12:04:02;13.00;;;6.50;;
39176;SDS011;24904;52.208;21.192;2022-08-03T12:09:14;6.00;;;4.70;;
39176;SDS011;24904;52.208;21.192;2022-08-03T12:14:17;9.50;;;5.10;;
39176;SDS011;24904;52.208;21.192;2022-08-03T12:19:21;7.70;;;4.80;;
39176;SDS011;24904;52.208;21.192;2022-08-03T12:24:24;9.60;;;4.90;;
39176;SDS011;24904;52.208;21.192;2022-08-03T12:29:29;12.30;;;5.00;;
39176;SDS011;24904;52.208;21.192;2022-08-03T12:34:44;8.00;;;4.70;;
39176;SDS011;24904;52.208;21.192;2022-08-03T12:39:51;7.20;;;4.60;;
39176;SDS011;24904;52.208;21.192;2022-08-03T12:44:55;17.50;;;5.40;;
39176;SDS011;24904;52.208;21.192;2022-08-03T12:49:58;24.60;;;9.40;;
39176;SDS011;24904;52.208;21.192;2022-08-03T12:55:01;23.10;;;10.10;;
39176;SDS011;24904;52.208;21.192;2022-08-03T13:00:10;7.60;;;5.00;;
39176;SDS011;24904;52.208;21.192;2022-08-03T13:05:15;35.70;;;13.50;;
39176;SDS011;24904;52.208;21.192;2022-08-03T13:10:29;7.50;;;4.40;;
39176;SDS011;24904;52.208;21.192;2022-08-03T13:15:33;9.90;;;4.90;;
39176;SDS011;24904;52.208;21.192;2022-08-03T13:20:36;8.10;;;5.00;;
39176;SDS011;24904;52.208;21.192;2022-08-03T13:25:39;6.90;;;5.10;;
39176;SDS011;24904;52.208;21.192;2022-08-03T13:30:42;7.10;;;4.70;;
39176;SDS011;24904;52.208;21.192;2022-08-03T13:35:45;7.90;;;4.60;;
39176;SDS011;24904;52.208;21.192;2022-08-03T13:40:48;5.70;;;5.00;;
39176;SDS011;24904;52.208;21.192;2022-08-03T13:45:53;7.40;;;4.70;;
39176;SDS011;24904;52.208;21.192;2022-08-03T13:50:56;8.30;;;4.60;;
39176;SDS011;24904;52.208;21.192;2022-08-03T13:55:59;7.10;;;5.10;;
39176;SDS011;24904;52.208;21.192;2022-08-03T14:01:03;6.80;;;4.40;;
39176;SDS011;24904;52.208;21.192;2022-08-03T14:06:06;12.30;;;4.90;;
39176;SDS011;24904;52.208;21.192;2022-08-03T14:11:09;7.80;;;5.00;;
39176;SDS011;24904;52.208;21.192;2022-08-03T14:16:13;5.80;;;4.30;;
39176;SDS011;24904;52.208;21.192;2022-08-03T14:21:16;8.00;;;4.80;;
39176;SDS011;24904;52.208;21.192;2022-08-03T14:26:19;10.90;;;5.00;;
39176;SDS011;24904;52.208;21.192;2022-08-03T14:31:22;15.50;;;5.10;;
39176;SDS011;24904;52.208;21.192;2022-08-03T14:36:26;12.20;;;5.30;;
39176;SDS011;24904;52.208;21.192;2022-08-03T14:41:30;11.70;;;4.90;;
39176;SDS011;24904;52.208;21.192;2022-08-03T14:46:33;9.20;;;4.50;;
39176;SDS011;24904;52.208;21.192;2022-08-03T14:51:36;7.00;;;4.20;;
39176;SDS011;24904;52.208;21.192;2022-08-03T14:56:41;8.20;;;5.20;;
39176;SDS011;24904;52.208;21.192;2022-08-03T15:01:44;8.40;;;4.60;;
39176;SDS011;24904;52.208;21.192;2022-08-03T15:06:47;5.30;;;4.40;;
39176;SDS011;24904;52.208;21.192;2022-08-03T15:11:50;10.50;;;4.40;;
39176;SDS011;24904;52.208;21.192;2022-08-03T15:16:53;7.90;;;5.10;;
39176;SDS011;24904;52.208;21.192;2022-08-03T15:21:56;8.80;;;4.50;;
39176;SDS011;24904;52.208;21.192;2022-08-03T15:26:59;6.80;;;4.50;;
39176;SDS011;24904;52.208;21.192;2022-08-03T15:32:02;5.10;;;4.50;;
39176;SDS011;24904;52.208;21.192;2022-08-03T15:37:06;10.40;;;5.10;;
39176;SDS011;24904;52.208;21.192;2022-08-03T15:42:09;9.00;;;5.10;;
39176;SDS011;24904;52.208;21.192;2022-08-03T15:47:12;7.10;;;4.60;;
39176;SDS011;24904;52.208;21.192;2022-08-03T15:52:16;7.20;;;4.80;;
39176;SDS011;24904;52.208;21.192;2022-08-03T15:57:19;6.00;;;4.90;;
39176;SDS011;24904;52.208;21.192;2022-08-03T16:02:23;9.30;;;5.00;;
39176;SDS011;24904;52.208;21.192;2022-08-03T16:07:26;8.80;;;4.90;;
39176;SDS011;24904;52.208;21.192;2022-08-03T16:12:46;11.60;;;5.10;;
39176;SDS011;24904;52.208;21.192;2022-08-03T16:17:49;6.70;;;5.00;;
39176;SDS011;24904;52.208;21.192;2022-08-03T16:22:52;11.00;;;5.20;;
39176;SDS011;24904;52.208;21.192;2022-08-03T16:27:55;6.90;;;5.00;;
39176;SDS011;24904;52.208;21.192;2022-08-03T16:32:58;5.80;;;5.00;;
39176;SDS011;24904;52.208;21.192;2022-08-03T16:38:02;7.80;;;4.50;;
39176;SDS011;24904;52.208;21.192;2022-08-03T16:43:12;7.80;;;4.80;;
39176;SDS011;24904;52.208;21.192;2022-08-03T16:48:16;7.60;;;5.40;;
39176;SDS011;24904;52.208;21.192;2022-08-03T16:53:19;9.30;;;5.50;;
39176;SDS011;24904;52.208;21.192;2022-08-03T16:58:22;8.70;;;5.70;;
39176;SDS011;24904;52.208;21.192;2022-08-03T17:03:26;7.30;;;5.30;;
39176;SDS011;24904;52.208;21.192;2022-08-03T17:08:31;8.00;;;5.30;;
39176;SDS011;24904;52.208;21.192;2022-08-03T17:13:35;6.70;;;5.40;;
39176;SDS011;24904;52.208;21.192;2022-08-03T17:18:39;14.30;;;5.80;;
39176;SDS011;24904;52.208;21.192;2022-08-03T17:23:53;8.10;;;6.50;;
39176;SDS011;24904;52.208;21.192;2022-08-03T17:29:02;10.90;;;5.90;;
39176;SDS011;24904;52.208;21.192;2022-08-03T17:34:05;8.60;;;6.30;;
39176;SDS011;24904;52.208;21.192;2022-08-03T17:39:08;12.60;;;8.10;;
39176;SDS011;24904;52.208;21.192;2022-08-03T17:44:15;11.10;;;7.00;;
39176;SDS011;24904;52.208;21.192;2022-08-03T17:49:19;11.20;;;6.90;;
39176;SDS011;24904;52.208;21.192;2022-08-03T17:54:22;15.70;;;7.10;;
39176;SDS011;24904;52.208;21.192;2022-08-03T17:59:35;9.20;;;7.40;;
39176;SDS011;24904;52.208;21.192;2022-08-03T18:04:43;9.30;;;6.80;;
39176;SDS011;24904;52.208;21.192;2022-08-03T18:09:53;8.20;;;6.60;;
39176;SDS011;24904;52.208;21.192;2022-08-03T18:14:59;7.90;;;7.10;;
39176;SDS011;24904;52.208;21.192;2022-08-03T18:20:04;12.60;;;8.80;;
39176;SDS011;24904;52.208;21.192;2022-08-03T18:25:09;11.00;;;8.80;;
39176;SDS011;24904;52.208;21.192;2022-08-03T18:30:14;11.40;;;7.40;;
39176;SDS011;24904;52.208;21.192;2022-08-03T18:35:17;9.70;;;7.70;;
39176;SDS011;24904;52.208;21.192;2022-08-03T18:40:21;14.30;;;8.80;;
39176;SDS011;24904;52.208;21.192;2022-08-03T18:45:25;13.70;;;8.20;;
39176;SDS011;24904;52.208;21.192;2022-08-03T18:50:33;12.80;;;9.50;;
39176;SDS011;24904;52.208;21.192;2022-08-03T18:55:43;17.40;;;9.00;;
39176;SDS011;24904;52.208;21.192;2022-08-03T19:00:56;13.50;;;9.80;;
39176;SDS011;24904;52.208;21.192;2022-08-03T19:06:04;12.00;;;9.20;;
39176;SDS011;24904;52.208;21.192;2022-08-03T19:11:12;13.60;;;10.40;;
39176;SDS011;24904;52.208;21.192;2022-08-03T19:16:26;16.20;;;10.30;;
39176;SDS011;24904;52.208;21.192;2022-08-03T19:21:33;12.00;;;10.30;;
39176;SDS011;24904;52.208;21.192;2022-08-03T19:26:37;14.20;;;11.00;;
39176;SDS011;24904;52.208;21.192;2022-08-03T19:31:41;16.40;;;11.00;;
39176;SDS011;24904;52.208;21.192;2022-08-03T19:36:45;18.50;;;13.40;;
39176;SDS011;24904;52.208;21.192;2022-08-03T19:41:50;18.90;;;12.60;;
39176;SDS011;24904;52.208;21.192;2022-08-03T19:46:57;19.90;;;11.70;;
39176;SDS011;24904;52.208;21.192;2022-08-03T19:52:07;18.50;;;11.30;;
39176;SDS011;24904;52.208;21.192;2022-08-03T19:57:11;14.30;;;11.20;;
39176;SDS011;24904;52.208;21.192;2022-08-03T20:02:19;13.10;;;9.80;;
39176;SDS011;24904;52.208;21.192;2022-08-03T20:07:22;14.00;;;10.70;;
39176;SDS011;24904;52.208;21.192;2022-08-03T20:12:26;13.50;;;10.60;;
39176;SDS011;24904;52.208;21.192;2022-08-03T20:17:30;15.00;;;11.70;;
39176;SDS011;24904;52.208;21.192;2022-08-03T20:22:34;14.70;;;12.00;;
39176;SDS011;24904;52.208;21.192;2022-08-03T20:27:43;19.50;;;11.80;;
39176;SDS011;24904;52.208;21.192;2022-08-03T20:32:47;22.90;;;12.10;;
39176;SDS011;24904;52.208;21.192;2022-08-03T20:37:50;23.30;;;11.70;;
39176;SDS011;24904;52.208;21.192;2022-08-03T20:42:54;21.10;;;11.80;;
39176;SDS011;24904;52.208;21.192;2022-08-03T20:47:57;14.40;;;10.00;;
39176;SDS011;24904;52.208;21.192;2022-08-03T20:53:02;13.60;;;9.70;;
39176;SDS011;24904;52.208;21.192;2022-08-03T20:58:06;13.50;;;9.20;;
39176;SDS011;24904;52.208;21.192;2022-08-03T21:03:10;11.20;;;8.70;;
39176;SDS011;24904;52.208;21.192;2022-08-03T21:08:13;16.90;;;8.90;;
39176;SDS011;24904;52.208;21.192;2022-08-03T21:13:21;17.00;;;9.30;;
39176;SDS011;24904;52.208;21.192;2022-08-03T21:18:28;22.20;;;8.50;;
39176;SDS011;24904;52.208;21.192;2022-08-03T21:23:37;14.40;;;9.20;;
39176;SDS011;24904;52.208;21.192;2022-08-03T21:28:43;13.70;;;8.60;;
39176;SDS011;24904;52.208;21.192;2022-08-03T21:33:47;15.30;;;8.70;;
39176;SDS011;24904;52.208;21.192;2022-08-03T21:38:50;14.60;;;9.00;;
39176;SDS011;24904;52.208;21.192;2022-08-03T21:43:55;12.60;;;8.90;;
39176;SDS011;24904;52.208;21.192;2022-08-03T21:48:59;16.50;;;8.60;;
39176;SDS011;24904;52.208;21.192;2022-08-03T21:54:05;11.40;;;9.00;;
39176;SDS011;24904;52.208;21.192;2022-08-03T21:59:13;10.00;;;8.70;;
39176;SDS011;24904;52.208;21.192;2022-08-03T22:04:18;11.40;;;8.60;;
39176;SDS011;24904;52.208;21.192;2022-08-03T22:09:22;14.00;;;8.00;;
39176;SDS011;24904;52.208;21.192;2022-08-03T22:14:25;13.60;;;8.20;;
39176;SDS011;24904;52.208;21.192;2022-08-03T22:19:29;16.50;;;8.90;;
39176;SDS011;24904;52.208;21.192;2022-08-03T22:24:34;15.30;;;8.30;;
39176;SDS011;24904;52.208;21.192;2022-08-03T22:29:37;10.80;;;7.20;;
39176;SDS011;24904;52.208;21.192;2022-08-03T22:34:42;14.20;;;7.70;;
39176;SDS011;24904;52.208;21.192;2022-08-03T22:39:48;11.40;;;8.60;;
39176;SDS011;24904;52.208;21.192;2022-08-03T22:44:52;9.50;;;7.60;;
39176;SDS011;24904;52.208;21.192;2022-08-03T22:49:56;10.20;;;7.60;;
39176;SDS011;24904;52.208;21.192;2022-08-03T22:55:00;19.20;;;7.60;;
39176;SDS011;24904;52.208;21.192;2022-08-03T23:00:06;10.00;;;6.90;;
39176;SDS011;24904;52.208;21.192;2022-08-03T23:05:14;10.70;;;6.70;;
39176;SDS011;24904;52.208;21.192;2022-08-03T23:10:22;17.40;;;7.70;;
39176;SDS011;24904;52.208;21.192;2022-08-03T23:15:27;11.50;;;7.40;;
39176;SDS011;24904;52.208;21.192;2022-08-03T23:20:33;11.00;;;6.90;;
39176;SDS011;24904;52.208;21.192;2022-08-03T23:25:38;11.20;;;6.90;;
39176;SDS011;24904;52.208;21.192;2022-08-03T23:30:41;10.60;;;7.00;;
39176;SDS011;24904;52.208;21.192;2022-08-03T23:35:45;13.60;;;6.50;;
39176;SDS011;24904;52.208;21.192;2022-08-03T23:40:58;8.50;;;6.40;;
39176;SDS011;24904;52.208;21.192;2022-08-03T23:46:03;11.50;;;7.00;;
39176;SDS011;24904;52.208;21.192;2022-08-03T23:51:09;11.70;;;7.00;;
39176;SDS011;24904;52.208;21.192;2022-08-03T23:56:22;12.80;;;6.60;;
